Terminal Aerodrome Forecast
Issued by NWS

Home | Current Version | Previous Version | Text Only | Print | Product List | Glossary On
Versions: 1 2 3 4 5 6 7 8 9 10 11 12 13
000
FTUS45 KRIW 280500
TAFJAC
TAF
KJAC 280540Z 2806/2906 22008KT P6SM BKN100 WS018/24035KT
     FM281700 20014G22KT P6SM SCT110 WS018/23035KT
     FM290300 20014G20KT P6SM SCT040 OVC060 WS018/23040KT
      AMD LTD TO CLD VIS AND WIND=

USA.gov is the U.S. government's official web portal to all federal, state and local government web resources and services.